Time;durP1;ratioP1;P1;durP2;ratioP2;P2;SDS_P1;SDS_P2;PMS_P1;PMS_P2;Temp;Humidity;BMP_temperature;BMP_pressure;BME280_temperature;BME280_humidity;BME280_pressure;Samples;Min_cycle;Max_cycle;Signal;HPM_P1;HPM_P2
2023/02/09 00:01:05;;;;;;;11.85;4.57;;;2.40;99.90;;;;;;5035715;28;20030;-36
2023/02/09 00:03:31;;;;;;;11.13;5.63;;;2.40;99.90;;;;;;5034697;28;20033;-35
2023/02/09 00:06:02;;;;;;;8.07;4.80;;;2.40;99.90;;;;;;5031598;28;20090;-37
2023/02/09 00:08:28;;;;;;;10.43;4.50;;;2.40;99.90;;;;;;5021859;28;20045;-34
2023/02/09 00:10:54;;;;;;;10.80;4.65;;;2.40;99.90;;;;;;5035544;28;20478;-35
2023/02/09 00:13:23;;;;;;;8.30;4.25;;;2.40;99.90;;;;;;5035427;28;20033;-34
2023/02/09 00:15:57;;;;;;;7.43;3.90;;;2.50;99.90;;;;;;5035530;28;20494;-38
2023/02/09 00:18:24;;;;;;;9.05;4.35;;;2.40;99.90;;;;;;5035456;28;20100;-34
2023/02/09 00:21:01;;;;;;;10.13;5.78;;;2.40;99.90;;;;;;5030499;28;20026;-34
2023/02/09 00:23:29;;;;;;;10.00;4.22;;;2.40;99.90;;;;;;5015835;28;20415;-34
2023/02/09 00:26:01;;;;;;;7.45;3.35;;;2.40;99.90;;;;;;5015813;28;20474;-38
2023/02/09 00:28:27;;;;;;;10.10;5.18;;;2.40;99.90;;;;;;5015416;28;20087;-36
2023/02/09 00:30:52;;;;;;;7.80;4.57;;;2.30;99.90;;;;;;5028121;28;20425;-37
2023/02/09 00:33:18;;;;;;;8.80;4.32;;;2.30;99.90;;;;;;5035119;28;20022;-37
2023/02/09 00:35:44;;;;;;;11.18;5.25;;;2.30;99.90;;;;;;5035292;28;20029;-36
2023/02/09 00:38:13;;;;;;;9.60;4.30;;;2.30;99.90;;;;;;5029308;28;20045;-34
2023/02/09 00:40:39;;;;;;;13.75;5.05;;;2.30;99.90;;;;;;5033998;28;20389;-35
2023/02/09 00:43:06;;;;;;;11.88;4.07;;;2.20;99.90;;;;;;5033335;28;20071;-47
2023/02/09 00:45:31;;;;;;;7.50;4.10;;;2.20;99.90;;;;;;5021704;28;20104;-43
2023/02/09 00:47:57;;;;;;;8.13;4.68;;;2.20;99.90;;;;;;5021160;28;20499;-46
2023/02/09 00:50:23;;;;;;;14.45;4.93;;;2.20;99.90;;;;;;5034663;28;20390;-48
2023/02/09 00:52:49;;;;;;;10.18;4.68;;;2.20;99.90;;;;;;5018697;28;20045;-42
2023/02/09 00:55:15;;;;;;;10.88;4.95;;;2.30;99.90;;;;;;5020598;28;20050;-47
2023/02/09 00:57:41;;;;;;;8.02;4.55;;;2.20;99.90;;;;;;5033007;28;20030;-44
2023/02/09 01:00:08;;;;;;;13.27;5.15;;;2.20;99.90;;;;;;5033761;28;20494;-50
2023/02/09 01:02:34;;;;;;;13.18;5.22;;;2.20;99.90;;;;;;5034554;28;20028;-38
2023/02/09 01:05:00;;;;;;;9.60;4.80;;;2.20;99.90;;;;;;5034715;28;20486;-36
2023/02/09 01:07:25;;;;;;;11.70;4.60;;;2.10;99.90;;;;;;5034732;28;20029;-34
2023/02/09 01:09:51;;;;;;;13.55;4.78;;;2.10;99.90;;;;;;5033822;28;20121;-37
2023/02/09 01:12:16;;;;;;;8.88;4.57;;;2.10;99.90;;;;;;5031280;28;20045;-37
2023/02/09 01:14:42;;;;;;;11.90;4.85;;;2.10;99.90;;;;;;5033157;28;20041;-35
2023/02/09 01:17:08;;;;;;;6.85;3.85;;;2.10;99.90;;;;;;5025705;28;20075;-35
2023/02/09 01:19:34;;;;;;;8.77;4.30;;;2.10;99.90;;;;;;5029245;28;20750;-38
2023/02/09 01:22:00;;;;;;;8.57;4.32;;;2.10;99.90;;;;;;5024839;28;20021;-34
2023/02/09 01:24:26;;;;;;;14.20;5.05;;;2.10;99.90;;;;;;5023763;28;20433;-34
2023/02/09 01:26:51;;;;;;;14.45;5.15;;;2.10;99.90;;;;;;5030780;28;20532;-33
2023/02/09 01:29:19;;;;;;;11.70;4.47;;;2.00;99.90;;;;;;5022696;28;20061;-36
2023/02/09 01:31:45;;;;;;;7.93;4.70;;;2.00;99.90;;;;;;5025022;28;20029;-47
2023/02/09 01:34:14;;;;;;;13.00;4.90;;;2.10;99.90;;;;;;5020389;28;20022;-48
2023/02/09 01:36:40;;;;;;;10.65;4.45;;;2.00;99.90;;;;;;5026698;28;20449;-47
2023/02/09 01:39:06;;;;;;;11.05;4.55;;;2.00;99.90;;;;;;5021292;28;20108;-48
2023/02/09 01:41:33;;;;;;;7.28;3.60;;;2.00;99.90;;;;;;5024794;28;20432;-47
2023/02/09 01:44:05;;;;;;;9.18;4.85;;;2.00;99.90;;;;;;5027485;28;20090;-47
2023/02/09 01:46:33;;;;;;;9.18;4.85;;;2.10;99.90;;;;;;5028373;28;20029;-48
2023/02/09 01:49:14;;;;;;;12.15;4.43;;;2.10;99.90;;;;;;5025860;28;20578;-46
2023/02/09 01:51:50;;;;;;;7.15;3.95;;;2.10;99.90;;;;;;5020202;28;20108;-37
2023/02/09 01:54:20;;;;;;;11.77;4.47;;;2.10;99.90;;;;;;5031950;28;20108;-36
2023/02/09 01:56:51;;;;;;;10.27;4.72;;;2.00;99.90;;;;;;5028262;28;20132;-35
2023/02/09 01:59:17;;;;;;;8.95;4.05;;;2.00;99.90;;;;;;5029604;28;20033;-36
2023/02/09 02:01:43;;;;;;;10.70;4.32;;;2.00;99.90;;;;;;5024339;28;20041;-37
2023/02/09 02:04:09;;;;;;;8.52;4.50;;;2.00;99.90;;;;;;5019172;28;20504;-33
2023/02/09 02:06:35;;;;;;;13.55;4.45;;;2.00;99.90;;;;;;5021363;28;20022;-35
2023/02/09 02:09:10;;;;;;;8.07;3.78;;;2.10;99.90;;;;;;5032774;28;20033;-38
2023/02/09 02:11:36;;;;;;;11.65;5.00;;;2.10;99.90;;;;;;5033144;28;20022;-35
2023/02/09 02:14:02;;;;;;;10.80;4.60;;;2.10;99.90;;;;;;5029865;28;20036;-38
2023/02/09 02:16:35;;;;;;;9.05;4.28;;;2.10;99.90;;;;;;5031962;28;20362;-33
2023/02/09 02:19:26;;;;;;;8.43;4.55;;;2.00;99.90;;;;;;5033097;28;20405;-44
2023/02/09 02:22:09;;;;;;;8.50;4.05;;;2.00;99.90;;;;;;5026094;28;20393;-39
2023/02/09 02:24:43;;;;;;;9.98;3.85;;;1.90;99.90;;;;;;5024290;28;20160;-38
2023/02/09 02:27:27;;;;;;;8.45;4.63;;;2.00;99.90;;;;;;5013327;28;20486;-37
2023/02/09 02:33:17;;;;;;;12.85;5.10;;;2.00;99.90;;;;;;5014260;28;20088;-33
2023/02/09 02:35:58;;;;;;;10.10;4.15;;;2.00;99.90;;;;;;5029040;28;20486;-32
2023/02/09 02:38:48;;;;;;;8.55;4.28;;;2.00;99.90;;;;;;5032594;28;20470;-38
2023/02/09 02:41:18;;;;;;;8.35;4.45;;;2.00;99.90;;;;;;5026053;28;20037;-47
2023/02/09 02:43:44;;;;;;;9.05;4.65;;;2.00;99.90;;;;;;5023994;28;20037;-46
2023/02/09 02:46:25;;;;;;;11.30;4.60;;;2.00;99.90;;;;;;5019424;28;20026;-47
2023/02/09 02:49:04;;;;;;;12.15;4.93;;;2.00;99.90;;;;;;5028598;28;20490;-47
2023/02/09 02:51:52;;;;;;;8.55;5.15;;;2.00;99.90;;;;;;5031573;28;20140;-46
2023/02/09 02:54:31;;;;;;;9.25;4.40;;;2.00;99.90;;;;;;5031233;28;20029;-48
2023/02/09 02:57:02;;;;;;;7.32;4.00;;;1.90;99.90;;;;;;5032819;28;20040;-48
2023/02/09 02:59:33;;;;;;;10.75;5.00;;;1.90;99.90;;;;;;5030650;28;20481;-44
2023/02/09 03:02:00;;;;;;;8.43;4.65;;;1.90;99.90;;;;;;5012997;28;20030;-47
2023/02/09 03:04:29;;;;;;;11.60;5.20;;;1.90;99.90;;;;;;5024420;28;20467;-38
2023/02/09 03:06:54;;;;;;;8.38;4.00;;;1.90;99.90;;;;;;5032629;28;20029;-33
2023/02/09 03:09:20;;;;;;;13.38;5.05;;;1.80;99.90;;;;;;5027037;28;20532;-38
2023/02/09 03:11:50;;;;;;;11.30;4.82;;;1.90;99.90;;;;;;5030899;28;20032;-34
2023/02/09 03:14:29;;;;;;;9.55;4.65;;;1.90;99.90;;;;;;5032807;28;20547;-47
2023/02/09 03:17:05;;;;;;;7.45;3.83;;;1.90;99.90;;;;;;5032844;28;20038;-37
2023/02/09 03:19:46;;;;;;;8.10;4.97;;;1.90;99.90;;;;;;5026595;28;20053;-36
2023/02/09 03:22:19;;;;;;;9.45;5.00;;;1.90;99.90;;;;;;5024264;28;20470;-38
2023/02/09 03:24:52;;;;;;;12.38;5.25;;;1.90;99.90;;;;;;5031466;28;20560;-35
2023/02/09 03:27:41;;;;;;;9.55;4.47;;;1.90;99.90;;;;;;5030030;28;20108;-35
2023/02/09 03:30:11;;;;;;;15.05;5.25;;;1.90;99.90;;;;;;5025553;28;20110;-31
2023/02/09 03:32:39;;;;;;;9.27;4.53;;;1.80;99.90;;;;;;5012897;28;20485;-34
2023/02/09 03:35:05;;;;;;;;;;;1.90;99.90;;;;;;5015920;28;20459;-38
2023/02/09 03:37:31;;;;;;;9.65;4.18;;;1.90;99.90;;;;;;5016423;28;20376;-39
2023/02/09 03:39:56;;;;;;;11.23;4.35;;;1.90;99.90;;;;;;5017969;28;20034;-47
2023/02/09 03:42:22;;;;;;;10.88;4.70;;;1.90;99.90;;;;;;5015278;28;20496;-47
2023/02/09 03:44:48;;;;;;;11.02;4.80;;;1.90;99.90;;;;;;5028946;28;20482;-48
2023/02/09 03:47:13;;;;;;;10.25;4.18;;;1.80;99.90;;;;;;5020563;28;20026;-38
2023/02/09 03:49:40;;;;;;;9.10;4.53;;;1.90;99.90;;;;;;5029430;28;20562;-33
2023/02/09 03:52:09;;;;;;;10.70;4.43;;;2.00;99.90;;;;;;5029802;28;20025;-34
2023/02/09 03:54:35;;;;;;;10.13;5.00;;;2.00;99.90;;;;;;5030173;28;20049;-47
2023/02/09 03:57:02;;;;;;;8.07;4.10;;;2.10;99.90;;;;;;5032837;28;20056;-48
2023/02/09 03:59:28;;;;;;;9.65;4.55;;;2.10;99.90;;;;;;5026161;28;20045;-39
2023/02/09 04:01:55;;;;;;;5.68;3.92;;;2.00;99.90;;;;;;5033366;28;20389;-40
2023/02/09 04:04:21;;;;;;;8.27;3.95;;;2.00;99.90;;;;;;5028176;28;20104;-39
2023/02/09 04:06:48;;;;;;;12.85;4.63;;;2.00;99.90;;;;;;5031514;28;20044;-39
2023/02/09 04:09:14;;;;;;;7.75;4.50;;;2.00;99.90;;;;;;5035579;28;20033;-39
2023/02/09 04:11:40;;;;;;;8.55;4.13;;;2.00;99.90;;;;;;5035622;28;20021;-40
2023/02/09 04:14:07;;;;;;;9.48;4.18;;;2.00;99.90;;;;;;5023224;28;20474;-40
2023/02/09 04:16:33;;;;;;;13.27;3.97;;;1.90;99.90;;;;;;5015242;28;21035;-38
2023/02/09 04:18:59;;;;;;;8.00;3.90;;;1.90;99.90;;;;;;5027456;28;20042;-37
2023/02/09 04:21:24;;;;;;;8.25;4.18;;;1.90;99.90;;;;;;5028785;28;20116;-38
2023/02/09 04:23:50;;;;;;;9.70;4.82;;;1.90;99.90;;;;;;5032854;28;20049;-48
2023/02/09 04:26:16;;;;;;;13.32;4.75;;;1.90;99.90;;;;;;5035291;28;20448;-47
2023/02/09 04:28:42;;;;;;;7.68;4.13;;;1.90;99.90;;;;;;5035093;28;20044;-47
2023/02/09 04:31:08;;;;;;;11.05;4.40;;;1.90;99.90;;;;;;5033708;28;20025;-48
2023/02/09 04:33:33;;;;;;;14.25;4.55;;;1.90;99.90;;;;;;5033128;28;20095;-47
2023/02/09 04:35:59;;;;;;;10.43;4.38;;;1.90;99.90;;;;;;5018420;28;20363;-47
2023/02/09 04:38:25;;;;;;;7.95;4.32;;;2.00;99.90;;;;;;5015289;28;20025;-46
2023/02/09 04:40:52;;;;;;;12.05;4.30;;;1.90;99.90;;;;;;5015207;28;20049;-47
2023/02/09 04:43:18;;;;;;;13.48;4.03;;;1.90;99.90;;;;;;5027408;28;20028;-48
2023/02/09 04:45:44;;;;;;;4.15;3.30;;;1.90;99.90;;;;;;5034701;28;20029;-48
2023/02/09 04:48:13;;;;;;;8.10;4.28;;;1.90;99.90;;;;;;5034751;28;20026;-48
2023/02/09 04:50:39;;;;;;;12.02;4.07;;;1.90;99.90;;;;;;5019647;28;20470;-48
2023/02/09 04:53:05;;;;;;;9.93;5.60;;;1.90;99.90;;;;;;5015027;28;20026;-48
2023/02/09 04:55:30;;;;;;;8.93;3.92;;;1.90;99.90;;;;;;5021293;28;20497;-48
2023/02/09 05:00:40;;;;;;;8.18;4.25;;;1.90;99.90;;;;;;5034590;28;20035;-35
2023/02/09 05:03:06;;;;;;;13.95;3.67;;;1.90;99.90;;;;;;5034706;28;20022;-34
2023/02/09 05:05:32;;;;;;;10.02;3.35;;;1.90;99.90;;;;;;5031225;28;20040;-37
2023/02/09 05:07:58;;;;;;;9.20;4.10;;;1.90;99.90;;;;;;5033007;28;20029;-35
2023/02/09 05:10:23;;;;;;;11.85;4.13;;;1.90;99.90;;;;;;5018197;28;20036;-34
2023/02/09 05:12:49;;;;;;;7.85;4.13;;;1.80;99.90;;;;;;5014579;28;20434;-33
2023/02/09 05:15:15;;;;;;;10.18;4.07;;;1.80;99.90;;;;;;5022168;28;20471;-49
2023/02/09 05:17:41;;;;;;;8.95;4.43;;;1.70;99.90;;;;;;5025681;28;20024;-48
2023/02/09 05:20:07;;;;;;;11.77;4.57;;;1.70;99.90;;;;;;5031833;28;20087;-48
2023/02/09 05:22:33;;;;;;;9.70;5.05;;;1.70;99.90;;;;;;5028641;28;20553;-46
2023/02/09 05:24:59;;;;;;;11.18;4.10;;;1.60;99.90;;;;;;5022323;28;20064;-47
2023/02/09 05:27:24;;;;;;;6.43;4.15;;;1.60;99.90;;;;;;5034385;28;20100;-48
2023/02/09 05:29:50;;;;;;;8.02;4.53;;;1.60;99.90;;;;;;5033227;28;20033;-39
2023/02/09 05:32:16;;;;;;;9.57;4.20;;;1.70;99.90;;;;;;5031752;28;20017;-39
2023/02/09 05:34:41;;;;;;;9.18;4.32;;;1.70;99.90;;;;;;5031973;28;20117;-39
2023/02/09 05:37:07;;;;;;;7.82;4.18;;;1.60;99.90;;;;;;5033819;28;20769;-40
2023/02/09 05:39:32;;;;;;;9.93;4.18;;;1.70;99.90;;;;;;5029186;28;20509;-38
2023/02/09 05:42:16;;;;;;;11.38;4.70;;;1.70;99.90;;;;;;5014123;28;20034;-40
2023/02/09 05:44:49;;;;;;;8.82;4.20;;;1.70;99.90;;;;;;5014108;28;20106;-40
2023/02/09 05:47:20;;;;;;;16.25;4.20;;;1.60;99.90;;;;;;5015238;28;20478;-39
2023/02/09 05:52:30;;;;;;;11.70;4.53;;;1.60;99.90;;;;;;5034070;28;20037;-37
2023/02/09 05:54:56;;;;;;;9.50;4.57;;;1.50;99.90;;;;;;5033843;28;20033;-39
2023/02/09 05:57:22;;;;;;;9.02;3.83;;;1.50;99.90;;;;;;5020033;28;20478;-39
2023/02/09 05:59:47;;;;;;;8.07;4.00;;;1.50;99.90;;;;;;5021172;28;20033;-38
2023/02/09 06:02:13;;;;;;;7.72;4.22;;;1.40;99.90;;;;;;5033772;28;20481;-39
2023/02/09 06:04:39;;;;;;;11.40;4.55;;;1.40;99.90;;;;;;5028931;28;20026;-39
2023/02/09 06:07:05;;;;;;;12.02;4.57;;;1.40;99.90;;;;;;5013683;28;20053;-41
2023/02/09 06:09:30;;;;;;;13.32;4.70;;;1.40;99.90;;;;;;5013890;28;20058;-41
2023/02/09 06:11:56;;;;;;;13.93;4.97;;;1.40;99.90;;;;;;5028507;28;20231;-39
2023/02/09 06:14:22;;;;;;;7.57;4.15;;;1.30;99.90;;;;;;5033250;28;20480;-40
2023/02/09 06:16:47;;;;;;;12.40;4.65;;;1.30;99.90;;;;;;5031499;28;20028;-40
2023/02/09 06:19:18;;;;;;;12.77;4.47;;;1.30;99.90;;;;;;5033023;28;20033;-38
2023/02/09 06:21:45;;;;;;;10.55;4.82;;;1.30;99.90;;;;;;5025997;28;20490;-49
2023/02/09 06:24:11;;;;;;;15.23;5.38;;;1.30;99.90;;;;;;5027132;28;20473;-48
2023/02/09 06:26:38;;;;;;;9.68;4.68;;;1.30;99.90;;;;;;5028646;28;20038;-47
2023/02/09 06:29:04;;;;;;;10.00;4.57;;;1.20;99.90;;;;;;5030317;28;20037;-35
2023/02/09 06:31:29;;;;;;;12.38;4.35;;;1.20;99.90;;;;;;5032079;28;20032;-37
2023/02/09 06:33:55;;;;;;;7.60;4.15;;;1.10;99.90;;;;;;5031205;28;20033;-36
2023/02/09 06:36:21;;;;;;;11.60;4.40;;;1.10;99.90;;;;;;5027207;28;20049;-37
2023/02/09 06:38:46;;;;;;;8.50;4.53;;;1.20;99.90;;;;;;5029074;28;20035;-36
2023/02/09 06:41:12;;;;;;;13.00;4.22;;;1.20;99.90;;;;;;5032232;28;20025;-36
2023/02/09 06:43:38;;;;;;;11.50;4.18;;;1.30;99.90;;;;;;5024709;28;20080;-37
2023/02/09 06:46:08;;;;;;;8.82;4.50;;;1.30;99.90;;;;;;5023405;28;20083;-39
2023/02/09 06:48:35;;;;;;;14.45;5.03;;;1.30;99.90;;;;;;5032619;28;20116;-36
2023/02/09 06:51:00;;;;;;;9.88;4.22;;;1.20;99.90;;;;;;5031351;28;20485;-34
2023/02/09 06:53:26;;;;;;;12.88;5.18;;;1.20;99.90;;;;;;5033015;28;20035;-38
2023/02/09 06:55:52;;;;;;;13.20;4.72;;;1.20;99.90;;;;;;5033019;28;20029;-35
2023/02/09 06:58:18;;;;;;;11.38;4.43;;;1.20;99.90;;;;;;5022681;28;20030;-48
2023/02/09 07:00:43;;;;;;;13.27;5.05;;;1.20;99.90;;;;;;5013127;28;20030;-48
2023/02/09 07:03:10;;;;;;;9.88;4.10;;;1.20;99.90;;;;;;5028958;28;20029;-48
2023/02/09 07:05:35;;;;;;;11.15;4.38;;;1.10;99.90;;;;;;5021824;28;20038;-47
2023/02/09 07:08:01;;;;;;;9.68;4.65;;;1.10;99.90;;;;;;5014050;28;20037;-44
2023/02/09 07:10:27;;;;;;;17.63;4.90;;;1.10;99.90;;;;;;5023737;28;20116;-47
2023/02/09 07:12:55;;;;;;;9.32;4.40;;;1.10;99.90;;;;;;5017155;28;20029;-46
2023/02/09 07:15:20;;;;;;;;;;;1.10;99.90;;;;;;5020152;28;20026;-38
2023/02/09 07:17:46;;;;;;;11.43;4.50;;;1.20;99.90;;;;;;5030931;28;20411;-36
2023/02/09 07:20:12;;;;;;;9.77;5.10;;;1.20;99.90;;;;;;5030178;28;20096;-37
2023/02/09 07:22:38;;;;;;;13.77;4.93;;;1.20;99.90;;;;;;5036366;28;20025;-37
2023/02/09 07:25:03;;;;;;;12.65;5.10;;;1.20;99.90;;;;;;5031330;28;20033;-37
2023/02/09 07:27:29;;;;;;;9.52;4.88;;;1.20;99.90;;;;;;5029579;28;20486;-35
2023/02/09 07:29:55;;;;;;;9.75;4.40;;;1.20;99.90;;;;;;5036097;28;20442;-36
2023/02/09 07:32:22;;;;;;;10.32;4.72;;;1.20;99.90;;;;;;5030843;28;20096;-36
2023/02/09 07:34:48;;;;;;;13.63;5.00;;;1.20;99.90;;;;;;5028970;28;20538;-38
2023/02/09 07:37:14;;;;;;;9.45;4.13;;;1.30;99.90;;;;;;5030023;28;20101;-40
2023/02/09 07:39:40;;;;;;;10.13;4.82;;;1.30;99.90;;;;;;5032257;28;20044;-38
2023/02/09 07:42:05;;;;;;;11.32;4.30;;;1.30;99.90;;;;;;5028253;28;20538;-35
2023/02/09 07:44:31;;;;;;;10.95;4.18;;;1.40;99.90;;;;;;5028959;28;20397;-36
2023/02/09 07:46:57;;;;;;;8.07;4.03;;;1.40;99.90;;;;;;5033385;28;20401;-38
2023/02/09 07:49:22;;;;;;;12.38;4.72;;;1.40;99.90;;;;;;5027732;28;20065;-34
2023/02/09 07:51:48;;;;;;;10.48;4.45;;;1.50;99.90;;;;;;5029510;28;20492;-39
2023/02/09 07:54:14;;;;;;;11.40;5.05;;;1.50;99.90;;;;;;5033098;28;20164;-33
2023/02/09 07:56:40;;;;;;;11.13;4.85;;;1.60;99.90;;;;;;5030814;28;20090;-37
2023/02/09 07:59:06;;;;;;;11.80;5.05;;;1.60;99.90;;;;;;5018801;28;20030;-38
2023/02/09 08:01:33;;;;;;;17.73;4.50;;;1.60;99.90;;;;;;5024212;28;20112;-39
2023/02/09 08:03:59;;;;;;;14.68;5.00;;;1.70;99.90;;;;;;5021948;28;20026;-39
2023/02/09 08:06:39;;;;;;;13.40;4.05;;;1.80;99.90;;;;;;5033498;28;20026;-38
2023/02/09 08:09:05;;;;;;;12.25;4.65;;;1.90;99.90;;;;;;5024798;28;20038;-36
2023/02/09 08:11:40;;;;;;;14.88;4.93;;;1.90;99.90;;;;;;5028616;28;20030;-38
2023/02/09 08:14:12;;;;;;;9.25;4.47;;;1.90;99.90;;;;;;5015757;28;20077;-38
2023/02/09 08:16:39;;;;;;;13.75;5.18;;;2.00;99.90;;;;;;5021199;28;20520;-39
2023/02/09 08:19:11;;;;;;;9.82;5.20;;;2.10;99.90;;;;;;5032949;28;20033;-38
2023/02/09 08:21:39;;;;;;;30.00;8.00;;;2.00;99.90;;;;;;5029507;28;20053;-39
2023/02/09 08:24:06;;;;;;;11.82;5.05;;;2.00;99.90;;;;;;5018466;28;20402;-36
2023/02/09 08:26:32;;;;;;;11.05;6.03;;;2.10;99.90;;;;;;5031162;28;20048;-37
2023/02/09 08:28:58;;;;;;;11.23;4.70;;;2.10;99.90;;;;;;5034093;28;20029;-40
2023/02/09 08:31:23;;;;;;;12.18;4.20;;;2.20;99.90;;;;;;5020110;28;20021;-37
2023/02/09 08:33:50;;;;;;;9.52;4.53;;;2.20;99.90;;;;;;5031142;28;20463;-36
2023/02/09 08:36:18;;;;;;;16.75;5.45;;;2.30;99.90;;;;;;5018206;28;20022;-34
2023/02/09 08:38:44;;;;;;;10.93;4.38;;;2.30;99.90;;;;;;5029824;28;20032;-36
2023/02/09 08:41:12;;;;;;;17.30;5.20;;;2.30;99.90;;;;;;5032947;28;20018;-37
2023/02/09 08:43:38;;;;;;;15.10;5.05;;;2.40;99.90;;;;;;5019727;28;20041;-36
2023/02/09 08:46:13;;;;;;;10.93;5.15;;;2.40;99.90;;;;;;5032284;28;20034;-37
2023/02/09 08:48:41;;;;;;;8.60;4.95;;;2.40;99.90;;;;;;5025453;28;20068;-33
2023/02/09 08:51:08;;;;;;;9.82;4.53;;;2.50;99.90;;;;;;5028256;28;20048;-37
2023/02/09 08:53:34;;;;;;;12.50;5.13;;;2.50;99.90;;;;;;5034916;28;20048;-39
2023/02/09 08:56:00;;;;;;;8.65;5.13;;;2.50;99.90;;;;;;5030789;28;20025;-48
2023/02/09 08:58:26;;;;;;;15.55;4.82;;;2.60;99.90;;;;;;5032955;28;20093;-47
2023/02/09 09:00:56;;;;;;;10.73;5.05;;;2.70;99.90;;;;;;5024485;28;20026;-46
2023/02/09 09:03:27;;;;;;;11.00;5.68;;;2.70;99.90;;;;;;5019260;28;20025;-49
2023/02/09 09:06:00;;;;;;;13.48;5.65;;;2.70;99.90;;;;;;5019896;28;20029;-48
2023/02/09 09:08:26;;;;;;;13.20;5.38;;;2.70;99.90;;;;;;5026047;28;20520;-49
2023/02/09 09:10:52;;;;;;;14.85;5.43;;;2.70;99.90;;;;;;5023351;28;20505;-40
2023/02/09 09:13:19;;;;;;;11.77;5.10;;;2.80;99.90;;;;;;5024330;28;20034;-36
2023/02/09 09:15:44;;;;;;;9.80;5.30;;;2.90;99.90;;;;;;5030308;28;20441;-39
2023/02/09 09:18:10;;;;;;;18.25;5.75;;;2.90;99.90;;;;;;5032659;28;20021;-39
2023/02/09 09:20:39;;;;;;;16.38;5.10;;;3.00;99.90;;;;;;5022388;28;20091;-35
2023/02/09 09:23:05;;;;;;;21.27;6.10;;;3.00;99.90;;;;;;5021717;28;20422;-37
2023/02/09 09:25:31;;;;;;;9.05;4.63;;;3.00;99.90;;;;;;5032404;28;20068;-38
2023/02/09 09:27:57;;;;;;;11.57;5.68;;;3.10;99.90;;;;;;5032043;28;20034;-36
2023/02/09 09:30:22;;;;;;;10.13;4.55;;;3.20;99.90;;;;;;5028659;28;20056;-38
2023/02/09 09:32:48;;;;;;;14.52;5.43;;;3.30;99.90;;;;;;5026667;28;20040;-37
2023/02/09 09:35:14;;;;;;;10.57;5.30;;;3.40;99.90;;;;;;5034069;28;20025;-37
2023/02/09 09:37:39;;;;;;;11.00;5.40;;;3.50;99.90;;;;;;5032737;28;20108;-37
2023/02/09 09:40:05;;;;;;;13.48;6.55;;;3.50;99.90;;;;;;5031411;28;20100;-37
2023/02/09 09:42:54;;;;;;;16.08;6.00;;;3.60;99.90;;;;;;5026321;28;20029;-37
2023/02/09 09:45:23;;;;;;;12.20;5.53;;;3.70;99.90;;;;;;5027038;28;20423;-37
2023/02/09 09:47:49;;;;;;;11.18;5.28;;;3.80;99.90;;;;;;5019867;28;20042;-38
2023/02/09 09:50:24;;;;;;;16.83;6.30;;;3.90;99.90;;;;;;5026705;28;20040;-37
2023/02/09 09:53:22;;;;;;;17.48;5.75;;;4.00;99.90;;;;;;5027350;28;20056;-34
2023/02/09 09:55:51;;;;;;;14.13;5.32;;;4.10;99.90;;;;;;5017066;28;20092;-37
2023/02/09 09:58:19;;;;;;;12.93;5.57;;;4.10;99.90;;;;;;5012825;28;20449;-47
2023/02/09 10:00:46;;;;;;;13.30;5.25;;;4.20;99.90;;;;;;5029019;28;20557;-40
2023/02/09 10:03:20;;;;;;;11.53;5.67;;;4.20;99.90;;;;;;5044542;28;20029;-40
2023/02/09 10:06:00;;;;;;;10.00;5.18;;;4.30;99.90;;;;;;5027704;28;20033;-41
2023/02/09 10:08:31;;;;;;;10.57;5.68;;;4.30;99.90;;;;;;5022034;28;20029;-41
2023/02/09 10:11:14;;;;;;;16.23;5.75;;;4.40;99.90;;;;;;5029973;28;20493;-40
2023/02/09 10:13:47;;;;;;;12.13;6.05;;;4.30;99.90;;;;;;5031280;28;20025;-42
2023/02/09 10:16:26;;;;;;;11.50;5.72;;;4.30;99.90;;;;;;5031187;28;20025;-40
2023/02/09 10:18:57;;;;;;;14.90;6.13;;;4.40;99.90;;;;;;5029557;28;20025;-38
2023/02/09 10:21:25;;;;;;;14.45;6.07;;;4.40;99.90;;;;;;5023763;28;20552;-41
2023/02/09 10:24:03;;;;;;;15.20;7.47;;;4.50;99.90;;;;;;5016317;28;20029;-40
2023/02/09 10:26:47;;;;;;;;;;;4.50;99.90;;;;;;5018402;28;20367;-45
2023/02/09 10:29:13;;;;;;;11.18;5.28;;;4.60;99.90;;;;;;5029942;28;19924;-40
2023/02/09 10:31:45;;;;;;;17.73;6.38;;;4.60;99.90;;;;;;5014757;28;20478;-40
2023/02/09 10:34:14;;;;;;;14.02;6.22;;;4.70;99.90;;;;;;5029013;28;20029;-40
2023/02/09 10:37:11;;;;;;;13.07;5.78;;;4.80;99.90;;;;;;5064579;28;20494;-40
2023/02/09 10:39:37;;;;;;;17.33;6.43;;;4.80;99.90;;;;;;5033188;28;20041;-40
2023/02/09 10:42:23;;;;;;;12.00;6.35;;;4.90;99.90;;;;;;5033002;28;20048;-41
2023/02/09 10:44:52;;;;;;;13.77;6.22;;;4.90;99.90;;;;;;5024799;28;20026;-40
2023/02/09 10:47:22;;;;;;;14.13;5.75;;;4.90;99.90;;;;;;5015904;28;20033;-41
2023/02/09 10:50:09;;;;;;;19.85;7.15;;;5.00;99.90;;;;;;5029137;28;20068;-41
2023/02/09 10:52:38;;;;;;;19.17;6.55;;;5.00;99.90;;;;;;5027182;28;20065;-41
2023/02/09 10:55:18;;;;;;;18.50;7.63;;;5.00;99.90;;;;;;5031928;28;20490;-38
2023/02/09 10:57:44;;;;;;;15.43;6.47;;;5.00;99.90;;;;;;5032652;28;20481;-41
2023/02/09 11:00:16;;;;;;;20.58;6.53;;;5.00;99.90;;;;;;5023414;28;20037;-40
2023/02/09 11:02:53;;;;;;;15.25;7.32;;;5.00;99.90;;;;;;5012210;28;20490;-40
2023/02/09 11:05:21;;;;;;;20.20;7.35;;;4.90;99.90;;;;;;5027597;28;20087;-40
2023/02/09 11:08:14;;;;;;;13.85;6.60;;;5.00;99.90;;;;;;5026670;28;20050;-40
2023/02/09 11:10:49;;;;;;;11.48;6.28;;;5.10;99.90;;;;;;5012357;28;20390;-40
2023/02/09 11:13:22;;;;;;;13.25;6.47;;;5.20;99.90;;;;;;5012833;28;20029;-40
2023/02/09 11:16:18;;;;;;;12.68;6.57;;;5.20;99.90;;;;;;5029056;28;20112;-41
2023/02/09 11:18:55;;;;;;;16.70;6.72;;;5.30;99.90;;;;;;5032589;28;20030;-40
2023/02/09 11:21:36;;;;;;;13.35;5.43;;;5.50;99.90;;;;;;5031534;28;20116;-40
2023/02/09 11:24:22;;;;;;;17.10;7.40;;;5.50;99.90;;;;;;5023702;28;20037;-40
2023/02/09 11:27:26;;;;;;;17.27;6.75;;;5.60;99.90;;;;;;5032395;28;20060;-40
2023/02/09 11:30:12;;;;;;;16.17;6.65;;;5.60;99.90;;;;;;5026268;28;20045;-40
2023/02/09 11:32:53;;;;;;;13.93;6.97;;;5.60;99.90;;;;;;5012752;28;20112;-39
2023/02/09 11:35:23;;;;;;;15.80;6.75;;;5.70;99.90;;;;;;5017546;28;20030;-34
2023/02/09 11:38:15;;;;;;;12.80;6.65;;;5.80;99.90;;;;;;5031172;28;20489;-40
2023/02/09 11:40:45;;;;;;;15.55;7.55;;;5.90;99.90;;;;;;5027644;28;20501;-40
2023/02/09 11:43:16;;;;;;;20.63;6.28;;;6.00;99.90;;;;;;5027118;28;20505;-41
2023/02/09 11:45:44;;;;;;;18.40;7.03;;;6.00;99.90;;;;;;5031187;28;20021;-39
2023/02/09 11:48:11;;;;;;;17.50;7.97;;;6.00;99.90;;;;;;5032188;28;20029;-39
2023/02/09 11:50:41;;;;;;;17.63;7.20;;;6.00;99.90;;;;;;5032497;28;20041;-39
2023/02/09 11:53:33;;;;;;;19.85;7.70;;;5.90;99.90;;;;;;5032213;28;20025;-41
2023/02/09 11:56:01;;;;;;;17.50;8.20;;;5.90;99.90;;;;;;5034484;28;20045;-41
2023/02/09 11:58:50;;;;;;;15.50;7.10;;;5.90;99.90;;;;;;5033355;28;20040;-40
2023/02/09 12:01:18;;;;;;;17.33;7.60;;;5.90;99.90;;;;;;5035308;28;20033;-40
2023/02/09 12:04:14;;;;;;;18.63;7.65;;;6.00;99.90;;;;;;5034514;28;20486;-40
2023/02/09 12:06:48;;;;;;;22.23;8.18;;;6.00;99.90;;;;;;5033399;28;20281;-37
2023/02/09 12:09:44;;;;;;;26.02;7.47;;;6.10;99.90;;;;;;5023813;28;20120;-40
2023/02/09 12:12:53;;;;;;;13.00;7.05;;;6.10;99.90;;;;;;5035775;28;20501;-39
2023/02/09 12:15:25;;;;;;;18.48;8.55;;;6.20;99.90;;;;;;5011776;28;20034;-40
2023/02/09 12:18:01;;;;;;;20.55;8.63;;;6.30;99.90;;;;;;5026904;28;20497;-37
2023/02/09 12:20:35;;;;;;;16.55;7.82;;;6.30;99.90;;;;;;5033851;28;20430;-40
2023/02/09 12:23:06;;;;;;;20.88;8.23;;;6.30;99.90;;;;;;5035436;28;20034;-38
2023/02/09 12:25:50;;;;;;;15.18;8.75;;;6.40;99.90;;;;;;5035322;28;20021;-38
2023/02/09 12:28:31;;;;;;;18.35;8.70;;;6.50;99.90;;;;;;5035655;28;20037;-41
2023/02/09 12:30:56;;;;;;;21.40;9.15;;;6.60;99.90;;;;;;5035337;28;20033;-42
2023/02/09 12:33:22;;;;;;;17.38;8.40;;;6.70;99.90;;;;;;5033288;28;20033;-41
2023/02/09 12:36:09;;;;;;;18.73;8.32;;;6.80;99.90;;;;;;5035227;28;20038;-38
2023/02/09 12:38:50;;;;;;;22.88;9.05;;;6.90;99.90;;;;;;5035013;28;20021;-40
2023/02/09 12:41:27;;;;;;;21.08;8.93;;;6.90;99.90;;;;;;5035113;28;20037;-40
2023/02/09 12:44:12;;;;;;;15.75;8.07;;;7.00;99.90;;;;;;5035169;28;20540;-38
2023/02/09 12:46:43;;;;;;;20.30;8.68;;;7.00;99.90;;;;;;5034265;28;20542;-40
2023/02/09 12:49:16;;;;;;;19.27;9.93;;;7.00;99.90;;;;;;5025168;28;20482;-38
2023/02/09 12:51:49;;;;;;;23.58;9.65;;;7.00;99.90;;;;;;5013834;28;20053;-39
2023/02/09 12:54:42;;;;;;;16.35;9.18;;;7.00;99.90;;;;;;5014998;28;20367;-37
2023/02/09 12:57:13;;;;;;;18.27;8.65;;;7.10;99.90;;;;;;5015000;28;20033;-40
2023/02/09 12:59:49;;;;;;;19.75;9.05;;;7.20;99.90;;;;;;5065063;28;20045;-37
2023/02/09 13:02:38;;;;;;;15.93;8.15;;;7.20;99.90;;;;;;5034762;28;20034;-39
2023/02/09 13:05:27;;;;;;;22.88;10.07;;;7.20;99.90;;;;;;5029560;28;20030;-39
2023/02/09 13:08:15;;;;;;;22.27;9.00;;;7.20;99.90;;;;;;5033143;28;20120;-39
2023/02/09 13:10:50;;;;;;;22.88;10.23;;;7.20;99.90;;;;;;5016530;28;20033;-46
2023/02/09 13:13:34;;;;;;;16.63;8.32;;;7.30;99.90;;;;;;5017159;28;20033;-38
2023/02/09 13:16:01;;;;;;;16.92;8.07;;;7.30;99.90;;;;;;5027218;28;20537;-38